Aérodrome :
LOGIN :

S'inscrire | Disclaimer

   EN    FR    IT 

 










Légende :    VFR   VFR Marginal   IFR   IFR Intensif   IFR Très Intensif
Visi : 
Plafond : 
>= 8 km
>= 3000ft
5 à 8 km
1000 à 3000 ft
1500m à 5 km
500 à 1000 ft
800 à 1500m
200 à 500 ft
< 800m
< 200 ft
Symboles :   Orages  Brouillard  Fortes neiges  Fortes précipitations  Vent > 20 kt
SIGMETs :   Divers  Orages  Givrage  Turbulence  Onde Orograph.  Cendres Volcan.







- Altitude de l'aérodrome : 863 ft
- Code IATA : ZAZ


LEZG - Zaragoza Aragon

DERNIER METAR :
  • 301200Z 10010KT 060V140 CAVOK 20/10 Q1023

METARs EXPIRÉS :
  • 301130Z 08010KT CAVOK 20/09 Q1024
  • 301100Z 10011KT 070V140 CAVOK 19/08 Q1024
  • 301030Z 09008KT CAVOK 18/09 Q1025
  • 301000Z 08008KT 050V120 CAVOK 17/09 Q1025
  • 300930Z 08007KT 050V110 CAVOK 16/09 Q1025

TAF TAF LEZG
Valide du 30 à 12h jusqu'au 31 à 12h UTC


301100Z 3012/3112 12008KT 9999 FEW060 TX24/3015Z TN10/3107Z
TEMPO 3012/3022 10014G26KT
BECMG 3022/3024 11005KT
Pas de NOTAMs connus pour ce terrain.



MET'MAP, la Météo Aéronautique d'un coup d'oeil ! - Copyright ORBIFLY Décembre 2007 - Disclaimer

ORBIFLY MET'MAP TEAM :

Programmation & Développement : Alexandra Zaïnal
Conception & Développement : Baudouin d'Aumeries
Co-Programmation & Développement : Marc-Olivier Méhu
Soutien technique & logistique : Manuel Goepfert

Contact : metmap@orbifly.com




SOURCES & CREDITS :

   NOAA